sensor_id;sensor_type;location;lat;lon;timestamp;P1;durP1;ratioP1;P2;durP2;ratioP2
73675;SDS011;61975;48.660;10.164;2022-11-03T00:01:48;8.70;;;3.20;;
73675;SDS011;61975;48.660;10.164;2022-11-03T00:04:16;7.57;;;3.20;;
73675;SDS011;61975;48.660;10.164;2022-11-03T00:06:46;8.93;;;3.30;;
73675;SDS011;61975;48.660;10.164;2022-11-03T00:09:13;7.28;;;3.45;;
73675;SDS011;61975;48.660;10.164;2022-11-03T00:11:40;10.50;;;3.80;;
73675;SDS011;61975;48.660;10.164;2022-11-03T00:14:07;11.60;;;3.53;;
73675;SDS011;61975;48.660;10.164;2022-11-03T00:16:34;11.35;;;4.03;;
73675;SDS011;61975;48.660;10.164;2022-11-03T00:19:00;8.98;;;3.70;;
73675;SDS011;61975;48.660;10.164;2022-11-03T00:21:25;10.07;;;3.87;;
73675;SDS011;61975;48.660;10.164;2022-11-03T00:23:51;9.88;;;4.10;;
73675;SDS011;61975;48.660;10.164;2022-11-03T00:26:23;8.33;;;3.53;;
73675;SDS011;61975;48.660;10.164;2022-11-03T00:28:51;7.72;;;3.10;;
73675;SDS011;61975;48.660;10.164;2022-11-03T00:31:21;8.23;;;2.97;;
73675;SDS011;61975;48.660;10.164;2022-11-03T00:33:49;10.20;;;3.40;;
73675;SDS011;61975;48.660;10.164;2022-11-03T00:36:16;8.63;;;2.97;;
73675;SDS011;61975;48.660;10.164;2022-11-03T00:38:47;9.02;;;3.17;;
73675;SDS011;61975;48.660;10.164;2022-11-03T00:41:13;9.20;;;4.25;;
73675;SDS011;61975;48.660;10.164;2022-11-03T00:43:41;7.43;;;3.25;;
73675;SDS011;61975;48.660;10.164;2022-11-03T00:46:07;8.80;;;3.38;;
73675;SDS011;61975;48.660;10.164;2022-11-03T00:48:34;7.75;;;3.40;;
73675;SDS011;61975;48.660;10.164;2022-11-03T00:56:06;10.90;;;3.22;;
73675;SDS011;61975;48.660;10.164;2022-11-03T00:58:34;9.88;;;3.50;;
73675;SDS011;61975;48.660;10.164;2022-11-03T01:01:00;9.40;;;3.63;;
73675;SDS011;61975;48.660;10.164;2022-11-03T01:03:27;8.90;;;3.25;;
73675;SDS011;61975;48.660;10.164;2022-11-03T01:05:53;12.25;;;3.55;;
73675;SDS011;61975;48.660;10.164;2022-11-03T01:08:37;9.98;;;3.80;;
73675;SDS011;61975;48.660;10.164;2022-11-03T01:11:12;11.17;;;3.80;;
73675;SDS011;61975;48.660;10.164;2022-11-03T01:13:58;10.07;;;3.67;;
73675;SDS011;61975;48.660;10.164;2022-11-03T01:16:24;12.07;;;3.35;;
73675;SDS011;61975;48.660;10.164;2022-11-03T01:18:50;7.85;;;3.20;;
73675;SDS011;61975;48.660;10.164;2022-11-03T01:21:16;7.95;;;3.40;;
73675;SDS011;61975;48.660;10.164;2022-11-03T01:23:41;8.90;;;3.13;;
73675;SDS011;61975;48.660;10.164;2022-11-03T01:26:08;7.85;;;3.17;;
73675;SDS011;61975;48.660;10.164;2022-11-03T01:28:35;9.38;;;3.25;;
73675;SDS011;61975;48.660;10.164;2022-11-03T01:31:09;7.88;;;2.67;;
73675;SDS011;61975;48.660;10.164;2022-11-03T01:33:40;8.67;;;2.87;;
73675;SDS011;61975;48.660;10.164;2022-11-03T01:36:06;7.07;;;3.00;;
73675;SDS011;61975;48.660;10.164;2022-11-03T01:38:33;6.97;;;2.97;;
73675;SDS011;61975;48.660;10.164;2022-11-03T01:41:00;12.38;;;3.42;;
73675;SDS011;61975;48.660;10.164;2022-11-03T01:43:26;8.93;;;3.22;;
73675;SDS011;61975;48.660;10.164;2022-11-03T01:46:38;7.90;;;3.10;;
73675;SDS011;61975;48.660;10.164;2022-11-03T01:48:52;8.40;;;3.17;;
73675;SDS011;61975;48.660;10.164;2022-11-03T01:51:27;9.32;;;3.25;;
73675;SDS011;61975;48.660;10.164;2022-11-03T01:53:57;9.07;;;3.10;;
73675;SDS011;61975;48.660;10.164;2022-11-03T01:56:28;10.02;;;3.10;;
73675;SDS011;61975;48.660;10.164;2022-11-03T01:58:56;7.35;;;3.10;;
73675;SDS011;61975;48.660;10.164;2022-11-03T02:01:22;10.23;;;3.10;;
73675;SDS011;61975;48.660;10.164;2022-11-03T02:03:52;8.47;;;3.20;;
73675;SDS011;61975;48.660;10.164;2022-11-03T02:06:22;7.72;;;3.15;;
73675;SDS011;61975;48.660;10.164;2022-11-03T02:08:51;10.25;;;2.97;;
73675;SDS011;61975;48.660;10.164;2022-11-03T02:11:20;7.28;;;3.20;;
73675;SDS011;61975;48.660;10.164;2022-11-03T02:14:04;9.83;;;3.17;;
73675;SDS011;61975;48.660;10.164;2022-11-03T02:16:30;5.97;;;2.65;;
73675;SDS011;61975;48.660;10.164;2022-11-03T02:18:56;7.22;;;2.90;;
73675;SDS011;61975;48.660;10.164;2022-11-03T02:24:35;6.15;;;2.67;;
73675;SDS011;61975;48.660;10.164;2022-11-03T02:27:02;8.55;;;2.83;;
73675;SDS011;61975;48.660;10.164;2022-11-03T02:29:28;8.63;;;3.00;;
73675;SDS011;61975;48.660;10.164;2022-11-03T02:31:56;10.97;;;3.20;;
73675;SDS011;61975;48.660;10.164;2022-11-03T02:34:40;8.20;;;3.13;;
73675;SDS011;61975;48.660;10.164;2022-11-03T02:37:12;8.40;;;2.80;;
73675;SDS011;61975;48.660;10.164;2022-11-03T02:39:49;7.63;;;2.80;;
73675;SDS011;61975;48.660;10.164;2022-11-03T02:42:21;8.13;;;2.97;;
73675;SDS011;61975;48.660;10.164;2022-11-03T02:44:48;7.50;;;3.00;;
73675;SDS011;61975;48.660;10.164;2022-11-03T02:47:16;7.35;;;2.88;;
73675;SDS011;61975;48.660;10.164;2022-11-03T02:49:46;10.25;;;3.33;;
73675;SDS011;61975;48.660;10.164;2022-11-03T02:55:02;6.65;;;2.50;;
73675;SDS011;61975;48.660;10.164;2022-11-03T02:57:35;5.72;;;2.35;;
73675;SDS011;61975;48.660;10.164;2022-11-03T03:00:08;8.30;;;2.70;;
73675;SDS011;61975;48.660;10.164;2022-11-03T03:02:36;7.22;;;2.85;;
73675;SDS011;61975;48.660;10.164;2022-11-03T03:05:06;8.57;;;2.80;;
73675;SDS011;61975;48.660;10.164;2022-11-03T03:07:35;6.45;;;2.70;;
73675;SDS011;61975;48.660;10.164;2022-11-03T03:10:07;8.10;;;3.20;;
73675;SDS011;61975;48.660;10.164;2022-11-03T03:12:34;9.88;;;3.08;;
73675;SDS011;61975;48.660;10.164;2022-11-03T03:15:03;7.38;;;2.72;;
73675;SDS011;61975;48.660;10.164;2022-11-03T03:21:12;6.25;;;2.58;;
73675;SDS011;61975;48.660;10.164;2022-11-03T03:23:25;9.85;;;2.90;;
73675;SDS011;61975;48.660;10.164;2022-11-03T03:26:08;9.88;;;3.10;;
73675;SDS011;61975;48.660;10.164;2022-11-03T03:28:39;9.27;;;2.67;;
73675;SDS011;61975;48.660;10.164;2022-11-03T03:31:10;8.48;;;3.00;;
73675;SDS011;61975;48.660;10.164;2022-11-03T03:33:38;8.85;;;2.95;;
73675;SDS011;61975;48.660;10.164;2022-11-03T03:36:05;7.20;;;2.70;;
73675;SDS011;61975;48.660;10.164;2022-11-03T03:38:35;8.30;;;2.90;;
73675;SDS011;61975;48.660;10.164;2022-11-03T03:41:06;5.60;;;2.45;;
73675;SDS011;61975;48.660;10.164;2022-11-03T03:43:36;6.18;;;2.60;;
73675;SDS011;61975;48.660;10.164;2022-11-03T03:46:06;7.85;;;2.65;;
73675;SDS011;61975;48.660;10.164;2022-11-03T03:48:35;7.85;;;2.95;;
73675;SDS011;61975;48.660;10.164;2022-11-03T03:51:00;8.53;;;2.83;;
73675;SDS011;61975;48.660;10.164;2022-11-03T03:53:27;8.57;;;3.10;;
73675;SDS011;61975;48.660;10.164;2022-11-03T03:55:53;9.18;;;3.00;;
73675;SDS011;61975;48.660;10.164;2022-11-03T03:58:19;6.40;;;2.50;;
73675;SDS011;61975;48.660;10.164;2022-11-03T04:00:45;9.85;;;2.63;;
73675;SDS011;61975;48.660;10.164;2022-11-03T04:03:16;7.53;;;2.57;;
73675;SDS011;61975;48.660;10.164;2022-11-03T04:05:43;6.75;;;2.60;;
73675;SDS011;61975;48.660;10.164;2022-11-03T04:08:09;6.78;;;2.63;;
73675;SDS011;61975;48.660;10.164;2022-11-03T04:10:38;7.28;;;2.58;;
73675;SDS011;61975;48.660;10.164;2022-11-03T04:13:04;6.82;;;2.90;;
73675;SDS011;61975;48.660;10.164;2022-11-03T04:15:48;7.55;;;2.70;;
73675;SDS011;61975;48.660;10.164;2022-11-03T04:18:17;7.18;;;2.60;;
73675;SDS011;61975;48.660;10.164;2022-11-03T04:21:02;6.78;;;2.88;;
73675;SDS011;61975;48.660;10.164;2022-11-03T04:23:46;8.13;;;2.72;;
73675;SDS011;61975;48.660;10.164;2022-11-03T04:26:13;7.60;;;2.83;;
73675;SDS011;61975;48.660;10.164;2022-11-03T04:28:40;7.28;;;3.00;;
73675;SDS011;61975;48.660;10.164;2022-11-03T04:31:10;7.22;;;2.83;;
73675;SDS011;61975;48.660;10.164;2022-11-03T04:33:37;6.10;;;2.43;;
73675;SDS011;61975;48.660;10.164;2022-11-03T04:36:04;7.15;;;2.75;;
73675;SDS011;61975;48.660;10.164;2022-11-03T04:38:43;6.68;;;2.65;;
73675;SDS011;61975;48.660;10.164;2022-11-03T04:41:14;6.73;;;2.70;;
73675;SDS011;61975;48.660;10.164;2022-11-03T04:43:41;8.80;;;3.05;;
73675;SDS011;61975;48.660;10.164;2022-11-03T04:46:12;9.57;;;2.95;;
73675;SDS011;61975;48.660;10.164;2022-11-03T04:48:40;9.07;;;2.90;;
73675;SDS011;61975;48.660;10.164;2022-11-03T04:51:10;6.95;;;2.78;;
73675;SDS011;61975;48.660;10.164;2022-11-03T04:53:39;11.27;;;4.50;;
73675;SDS011;61975;48.660;10.164;2022-11-03T04:56:12;14.57;;;6.45;;
73675;SDS011;61975;48.660;10.164;2022-11-03T04:58:41;11.27;;;4.15;;
73675;SDS011;61975;48.660;10.164;2022-11-03T05:01:09;12.13;;;4.57;;
73675;SDS011;61975;48.660;10.164;2022-11-03T05:03:37;11.80;;;4.60;;
73675;SDS011;61975;48.660;10.164;2022-11-03T05:06:14;11.55;;;6.10;;
73675;SDS011;61975;48.660;10.164;2022-11-03T05:08:41;9.52;;;4.43;;
73675;SDS011;61975;48.660;10.164;2022-11-03T05:13:56;11.45;;;5.60;;
73675;SDS011;61975;48.660;10.164;2022-11-03T05:16:23;9.07;;;4.30;;
73675;SDS011;61975;48.660;10.164;2022-11-03T05:18:49;8.23;;;4.33;;
73675;SDS011;61975;48.660;10.164;2022-11-03T05:21:16;8.15;;;3.28;;
73675;SDS011;61975;48.660;10.164;2022-11-03T05:23:45;7.97;;;2.83;;
73675;SDS011;61975;48.660;10.164;2022-11-03T05:26:14;7.47;;;2.77;;
73675;SDS011;61975;48.660;10.164;2022-11-03T05:28:45;10.20;;;3.15;;
73675;SDS011;61975;48.660;10.164;2022-11-03T05:31:14;10.20;;;3.08;;
73675;SDS011;61975;48.660;10.164;2022-11-03T05:33:44;7.90;;;2.90;;
73675;SDS011;61975;48.660;10.164;2022-11-03T05:36:15;7.82;;;3.42;;
73675;SDS011;61975;48.660;10.164;2022-11-03T05:38:44;10.57;;;3.93;;
73675;SDS011;61975;48.660;10.164;2022-11-03T05:41:22;8.00;;;3.20;;
73675;SDS011;61975;48.660;10.164;2022-11-03T05:43:59;8.57;;;3.20;;
73675;SDS011;61975;48.660;10.164;2022-11-03T05:46:30;8.63;;;3.45;;
73675;SDS011;61975;48.660;10.164;2022-11-03T05:49:01;7.47;;;3.38;;
73675;SDS011;61975;48.660;10.164;2022-11-03T05:51:28;8.27;;;3.40;;
73675;SDS011;61975;48.660;10.164;2022-11-03T05:53:59;8.90;;;3.53;;
73675;SDS011;61975;48.660;10.164;2022-11-03T05:56:27;13.63;;;4.23;;
73675;SDS011;61975;48.660;10.164;2022-11-03T05:58:55;12.57;;;4.30;;
73675;SDS011;61975;48.660;10.164;2022-11-03T06:01:28;11.80;;;4.28;;
73675;SDS011;61975;48.660;10.164;2022-11-03T06:03:56;11.48;;;4.35;;
73675;SDS011;61975;48.660;10.164;2022-11-03T06:06:32;10.20;;;4.17;;
73675;SDS011;61975;48.660;10.164;2022-11-03T06:09:16;10.95;;;4.10;;
73675;SDS011;61975;48.660;10.164;2022-11-03T06:11:44;8.40;;;3.70;;
73675;SDS011;61975;48.660;10.164;2022-11-03T06:14:12;9.60;;;4.17;;
73675;SDS011;61975;48.660;10.164;2022-11-03T06:16:43;12.95;;;4.15;;
73675;SDS011;61975;48.660;10.164;2022-11-03T06:19:14;11.27;;;4.60;;
73675;SDS011;61975;48.660;10.164;2022-11-03T06:21:42;15.40;;;6.00;;
73675;SDS011;61975;48.660;10.164;2022-11-03T06:24:07;13.50;;;5.80;;
73675;SDS011;61975;48.660;10.164;2022-11-03T06:26:35;12.10;;;5.00;;
73675;SDS011;61975;48.660;10.164;2022-11-03T06:29:00;13.88;;;6.30;;
73675;SDS011;61975;48.660;10.164;2022-11-03T06:31:27;17.25;;;7.72;;
73675;SDS011;61975;48.660;10.164;2022-11-03T06:33:53;15.10;;;6.30;;
73675;SDS011;61975;48.660;10.164;2022-11-03T06:36:22;15.45;;;5.95;;
73675;SDS011;61975;48.660;10.164;2022-11-03T06:38:51;13.98;;;5.38;;
73675;SDS011;61975;48.660;10.164;2022-11-03T06:41:22;12.55;;;5.72;;
73675;SDS011;61975;48.660;10.164;2022-11-03T06:43:50;11.45;;;5.10;;
73675;SDS011;61975;48.660;10.164;2022-11-03T06:46:19;10.83;;;4.53;;
73675;SDS011;61975;48.660;10.164;2022-11-03T06:48:47;14.55;;;4.97;;
73675;SDS011;61975;48.660;10.164;2022-11-03T06:51:15;10.50;;;4.55;;
73675;SDS011;61975;48.660;10.164;2022-11-03T06:53:44;12.85;;;5.05;;
73675;SDS011;61975;48.660;10.164;2022-11-03T06:56:14;14.97;;;6.00;;
73675;SDS011;61975;48.660;10.164;2022-11-03T06:58:42;17.10;;;6.80;;
73675;SDS011;61975;48.660;10.164;2022-11-03T07:01:14;16.75;;;6.82;;
73675;SDS011;61975;48.660;10.164;2022-11-03T07:03:42;14.65;;;6.38;;
73675;SDS011;61975;48.660;10.164;2022-11-03T07:09:14;14.05;;;5.22;;
73675;SDS011;61975;48.660;10.164;2022-11-03T07:11:45;10.98;;;5.10;;
73675;SDS011;61975;48.660;10.164;2022-11-03T07:14:15;14.40;;;4.70;;
73675;SDS011;61975;48.660;10.164;2022-11-03T07:17:18;10.18;;;4.53;;
73675;SDS011;61975;48.660;10.164;2022-11-03T07:19:42;12.55;;;5.13;;
73675;SDS011;61975;48.660;10.164;2022-11-03T07:24:46;11.85;;;4.82;;
73675;SDS011;61975;48.660;10.164;2022-11-03T07:27:24;14.35;;;5.20;;
73675;SDS011;61975;48.660;10.164;2022-11-03T07:29:51;16.02;;;5.25;;
73675;SDS011;61975;48.660;10.164;2022-11-03T07:32:21;14.65;;;4.97;;
73675;SDS011;61975;48.660;10.164;2022-11-03T07:34:51;13.38;;;4.72;;
73675;SDS011;61975;48.660;10.164;2022-11-03T07:37:19;17.60;;;5.30;;
73675;SDS011;61975;48.660;10.164;2022-11-03T07:39:47;31.75;;;12.40;;
73675;SDS011;61975;48.660;10.164;2022-11-03T07:42:18;26.52;;;10.55;;
73675;SDS011;61975;48.660;10.164;2022-11-03T07:44:48;18.10;;;7.45;;
73675;SDS011;61975;48.660;10.164;2022-11-03T07:47:23;12.63;;;5.05;;
73675;SDS011;61975;48.660;10.164;2022-11-03T07:49:50;16.05;;;5.35;;
73675;SDS011;61975;48.660;10.164;2022-11-03T07:52:18;12.40;;;5.03;;
73675;SDS011;61975;48.660;10.164;2022-11-03T07:54:46;12.70;;;5.17;;
73675;SDS011;61975;48.660;10.164;2022-11-03T08:00:06;12.95;;;4.97;;
73675;SDS011;61975;48.660;10.164;2022-11-03T08:02:42;11.63;;;4.75;;
73675;SDS011;61975;48.660;10.164;2022-11-03T08:05:24;13.73;;;5.72;;
73675;SDS011;61975;48.660;10.164;2022-11-03T08:07:49;12.80;;;4.93;;
73675;SDS011;61975;48.660;10.164;2022-11-03T08:10:15;13.33;;;4.87;;
73675;SDS011;61975;48.660;10.164;2022-11-03T08:12:40;15.03;;;5.57;;
73675;SDS011;61975;48.660;10.164;2022-11-03T08:15:06;11.93;;;5.17;;
73675;SDS011;61975;48.660;10.164;2022-11-03T08:17:31;14.75;;;5.30;;
73675;SDS011;61975;48.660;10.164;2022-11-03T08:19:57;16.60;;;5.40;;
73675;SDS011;61975;48.660;10.164;2022-11-03T08:22:22;14.97;;;5.90;;
73675;SDS011;61975;48.660;10.164;2022-11-03T08:24:50;19.60;;;6.55;;
73675;SDS011;61975;48.660;10.164;2022-11-03T08:27:15;15.23;;;6.47;;
73675;SDS011;61975;48.660;10.164;2022-11-03T08:29:41;14.83;;;7.20;;
73675;SDS011;61975;48.660;10.164;2022-11-03T08:32:06;13.17;;;5.33;;
73675;SDS011;61975;48.660;10.164;2022-11-03T08:34:31;13.33;;;5.30;;
73675;SDS011;61975;48.660;10.164;2022-11-03T08:36:57;12.37;;;4.77;;
73675;SDS011;61975;48.660;10.164;2022-11-03T08:39:22;11.75;;;5.47;;
73675;SDS011;61975;48.660;10.164;2022-11-03T08:41:47;10.88;;;5.18;;
73675;SDS011;61975;48.660;10.164;2022-11-03T08:44:13;10.80;;;4.90;;
73675;SDS011;61975;48.660;10.164;2022-11-03T08:46:38;12.27;;;5.43;;
73675;SDS011;61975;48.660;10.164;2022-11-03T08:49:04;12.83;;;5.40;;
73675;SDS011;61975;48.660;10.164;2022-11-03T08:51:29;14.47;;;6.00;;
73675;SDS011;61975;48.660;10.164;2022-11-03T08:53:54;14.75;;;5.45;;
73675;SDS011;61975;48.660;10.164;2022-11-03T08:56:20;13.82;;;5.55;;
73675;SDS011;61975;48.660;10.164;2022-11-03T08:58:46;15.27;;;6.13;;
73675;SDS011;61975;48.660;10.164;2022-11-03T09:01:12;15.40;;;5.88;;
73675;SDS011;61975;48.660;10.164;2022-11-03T09:03:38;18.00;;;6.65;;
73675;SDS011;61975;48.660;10.164;2022-11-03T09:06:05;15.37;;;6.27;;
73675;SDS011;61975;48.660;10.164;2022-11-03T09:08:31;13.73;;;5.80;;
73675;SDS011;61975;48.660;10.164;2022-11-03T09:10:56;17.07;;;6.37;;
73675;SDS011;61975;48.660;10.164;2022-11-03T09:13:22;16.75;;;6.28;;
73675;SDS011;61975;48.660;10.164;2022-11-03T09:15:47;13.32;;;5.82;;
73675;SDS011;61975;48.660;10.164;2022-11-03T09:18:12;12.70;;;6.03;;
73675;SDS011;61975;48.660;10.164;2022-11-03T09:20:38;13.17;;;5.90;;
73675;SDS011;61975;48.660;10.164;2022-11-03T09:23:03;15.93;;;6.70;;
73675;SDS011;61975;48.660;10.164;2022-11-03T09:25:29;12.52;;;5.80;;
73675;SDS011;61975;48.660;10.164;2022-11-03T09:27:54;13.45;;;5.40;;
73675;SDS011;61975;48.660;10.164;2022-11-03T09:30:19;12.00;;;5.67;;
73675;SDS011;61975;48.660;10.164;2022-11-03T09:32:45;14.17;;;6.73;;
73675;SDS011;61975;48.660;10.164;2022-11-03T09:35:10;13.63;;;5.57;;
73675;SDS011;61975;48.660;10.164;2022-11-03T09:37:38;13.03;;;5.83;;
73675;SDS011;61975;48.660;10.164;2022-11-03T09:40:04;12.45;;;5.30;;
73675;SDS011;61975;48.660;10.164;2022-11-03T09:42:30;13.05;;;5.82;;
73675;SDS011;61975;48.660;10.164;2022-11-03T09:44:58;15.47;;;6.10;;
73675;SDS011;61975;48.660;10.164;2022-11-03T09:47:37;11.82;;;5.43;;
73675;SDS011;61975;48.660;10.164;2022-11-03T09:50:04;12.48;;;5.35;;
73675;SDS011;61975;48.660;10.164;2022-11-03T09:52:30;10.88;;;5.00;;
73675;SDS011;61975;48.660;10.164;2022-11-03T09:54:57;10.73;;;5.20;;
73675;SDS011;61975;48.660;10.164;2022-11-03T09:57:25;12.93;;;5.60;;
73675;SDS011;61975;48.660;10.164;2022-11-03T09:59:51;12.18;;;5.57;;
73675;SDS011;61975;48.660;10.164;2022-11-03T10:02:27;13.98;;;5.68;;
73675;SDS011;61975;48.660;10.164;2022-11-03T10:04:54;10.95;;;5.32;;
73675;SDS011;61975;48.660;10.164;2022-11-03T10:07:21;11.52;;;5.20;;
73675;SDS011;61975;48.660;10.164;2022-11-03T10:09:50;11.65;;;5.47;;
73675;SDS011;61975;48.660;10.164;2022-11-03T10:12:17;10.32;;;4.55;;
73675;SDS011;61975;48.660;10.164;2022-11-03T10:14:43;12.23;;;5.20;;
73675;SDS011;61975;48.660;10.164;2022-11-03T10:17:14;11.40;;;5.40;;
73675;SDS011;61975;48.660;10.164;2022-11-03T10:19:43;10.50;;;5.18;;
73675;SDS011;61975;48.660;10.164;2022-11-03T10:22:12;8.95;;;4.55;;
73675;SDS011;61975;48.660;10.164;2022-11-03T10:24:37;14.80;;;5.40;;
73675;SDS011;61975;48.660;10.164;2022-11-03T10:27:03;12.07;;;5.47;;
73675;SDS011;61975;48.660;10.164;2022-11-03T10:29:43;11.07;;;4.95;;
73675;SDS011;61975;48.660;10.164;2022-11-03T10:32:10;10.33;;;4.63;;
73675;SDS011;61975;48.660;10.164;2022-11-03T10:34:53;10.27;;;5.15;;
73675;SDS011;61975;48.660;10.164;2022-11-03T10:37:22;11.93;;;5.40;;
73675;SDS011;61975;48.660;10.164;2022-11-03T10:39:49;10.65;;;4.97;;
73675;SDS011;61975;48.660;10.164;2022-11-03T10:42:17;10.93;;;5.90;;
73675;SDS011;61975;48.660;10.164;2022-11-03T10:44:53;9.98;;;5.55;;
73675;SDS011;61975;48.660;10.164;2022-11-03T10:47:33;9.63;;;5.15;;
73675;SDS011;61975;48.660;10.164;2022-11-03T10:50:21;9.63;;;4.88;;
73675;SDS011;61975;48.660;10.164;2022-11-03T10:52:48;9.30;;;4.85;;
73675;SDS011;61975;48.660;10.164;2022-11-03T10:55:15;9.27;;;4.50;;
73675;SDS011;61975;48.660;10.164;2022-11-03T10:57:42;11.13;;;5.13;;
73675;SDS011;61975;48.660;10.164;2022-11-03T11:00:12;10.95;;;5.03;;
73675;SDS011;61975;48.660;10.164;2022-11-03T11:02:42;9.52;;;5.15;;
73675;SDS011;61975;48.660;10.164;2022-11-03T11:07:42;10.10;;;4.97;;
73675;SDS011;61975;48.660;10.164;2022-11-03T11:10:12;10.10;;;4.97;;
73675;SDS011;61975;48.660;10.164;2022-11-03T11:15:45;9.68;;;5.00;;
73675;SDS011;61975;48.660;10.164;2022-11-03T11:20:52;9.18;;;4.65;;
73675;SDS011;61975;48.660;10.164;2022-11-03T11:28:33;10.77;;;5.60;;
73675;SDS011;61975;48.660;10.164;2022-11-03T11:31:00;10.05;;;5.65;;
73675;SDS011;61975;48.660;10.164;2022-11-03T11:33:26;10.90;;;5.78;;
73675;SDS011;61975;48.660;10.164;2022-11-03T11:41:19;9.97;;;5.60;;
73675;SDS011;61975;48.660;10.164;2022-11-03T11:43:45;10.15;;;5.22;;
73675;SDS011;61975;48.660;10.164;2022-11-03T11:48:49;11.45;;;5.57;;
73675;SDS011;61975;48.660;10.164;2022-11-03T11:51:26;10.48;;;5.75;;
73675;SDS011;61975;48.660;10.164;2022-11-03T11:53:52;9.95;;;5.55;;
73675;SDS011;61975;48.660;10.164;2022-11-03T11:56:18;11.43;;;5.37;;
73675;SDS011;61975;48.660;10.164;2022-11-03T11:58:47;10.75;;;5.72;;
73675;SDS011;61975;48.660;10.164;2022-11-03T12:01:21;11.02;;;5.70;;
73675;SDS011;61975;48.660;10.164;2022-11-03T12:03:53;10.25;;;5.40;;
73675;SDS011;61975;48.660;10.164;2022-11-03T12:06:34;12.27;;;5.93;;
73675;SDS011;61975;48.660;10.164;2022-11-03T12:11:47;12.38;;;6.10;;
73675;SDS011;61975;48.660;10.164;2022-11-03T12:22:37;10.48;;;5.35;;
73675;SDS011;61975;48.660;10.164;2022-11-03T12:25:04;11.68;;;5.95;;
73675;SDS011;61975;48.660;10.164;2022-11-03T12:30:01;12.88;;;6.43;;
73675;SDS011;61975;48.660;10.164;2022-11-03T12:32:29;12.43;;;6.27;;
73675;SDS011;61975;48.660;10.164;2022-11-03T12:34:55;12.30;;;6.13;;
73675;SDS011;61975;48.660;10.164;2022-11-03T12:37:20;13.70;;;6.37;;
73675;SDS011;61975;48.660;10.164;2022-11-03T12:39:46;13.00;;;6.15;;
73675;SDS011;61975;48.660;10.164;2022-11-03T12:42:12;13.30;;;6.53;;
73675;SDS011;61975;48.660;10.164;2022-11-03T12:44:37;13.02;;;6.57;;
73675;SDS011;61975;48.660;10.164;2022-11-03T12:47:02;13.90;;;6.40;;
73675;SDS011;61975;48.660;10.164;2022-11-03T12:49:28;13.80;;;6.60;;
73675;SDS011;61975;48.660;10.164;2022-11-03T12:51:54;14.65;;;6.85;;
73675;SDS011;61975;48.660;10.164;2022-11-03T12:54:20;15.17;;;7.20;;
73675;SDS011;61975;48.660;10.164;2022-11-03T12:56:48;15.32;;;6.97;;
73675;SDS011;61975;48.660;10.164;2022-11-03T12:59:14;15.60;;;6.68;;
73675;SDS011;61975;48.660;10.164;2022-11-03T13:01:39;15.17;;;7.40;;
73675;SDS011;61975;48.660;10.164;2022-11-03T13:04:05;14.60;;;6.73;;
73675;SDS011;61975;48.660;10.164;2022-11-03T13:06:30;14.60;;;6.75;;
73675;SDS011;61975;48.660;10.164;2022-11-03T13:08:56;14.10;;;7.17;;
73675;SDS011;61975;48.660;10.164;2022-11-03T13:11:22;14.57;;;7.15;;
73675;SDS011;61975;48.660;10.164;2022-11-03T13:14:06;17.25;;;7.78;;
73675;SDS011;61975;48.660;10.164;2022-11-03T13:16:31;16.83;;;7.90;;
73675;SDS011;61975;48.660;10.164;2022-11-03T13:18:57;15.00;;;7.30;;
73675;SDS011;61975;48.660;10.164;2022-11-03T13:21:22;15.93;;;7.33;;
73675;SDS011;61975;48.660;10.164;2022-11-03T13:23:48;15.73;;;7.43;;
73675;SDS011;61975;48.660;10.164;2022-11-03T13:26:13;18.20;;;7.65;;
73675;SDS011;61975;48.660;10.164;2022-11-03T13:28:38;14.63;;;7.43;;
73675;SDS011;61975;48.660;10.164;2022-11-03T13:31:04;14.57;;;7.10;;
73675;SDS011;61975;48.660;10.164;2022-11-03T13:33:30;16.05;;;7.45;;
73675;SDS011;61975;48.660;10.164;2022-11-03T13:35:55;16.90;;;8.10;;
73675;SDS011;61975;48.660;10.164;2022-11-03T13:38:20;17.90;;;8.77;;
73675;SDS011;61975;48.660;10.164;2022-11-03T13:40:46;18.23;;;7.80;;
73675;SDS011;61975;48.660;10.164;2022-11-03T13:43:11;18.80;;;8.52;;
73675;SDS011;61975;48.660;10.164;2022-11-03T13:45:37;16.77;;;8.00;;
73675;SDS011;61975;48.660;10.164;2022-11-03T13:48:03;20.73;;;8.83;;
73675;SDS011;61975;48.660;10.164;2022-11-03T13:50:28;20.77;;;8.95;;
73675;SDS011;61975;48.660;10.164;2022-11-03T13:52:53;23.73;;;9.15;;
73675;SDS011;61975;48.660;10.164;2022-11-03T13:55:19;26.50;;;9.93;;
73675;SDS011;61975;48.660;10.164;2022-11-03T13:57:46;26.40;;;9.88;;
73675;SDS011;61975;48.660;10.164;2022-11-03T14:00:12;25.20;;;10.97;;
73675;SDS011;61975;48.660;10.164;2022-11-03T14:02:41;23.95;;;10.25;;
73675;SDS011;61975;48.660;10.164;2022-11-03T14:05:07;26.17;;;10.48;;
73675;SDS011;61975;48.660;10.164;2022-11-03T14:07:34;27.07;;;10.53;;
73675;SDS011;61975;48.660;10.164;2022-11-03T14:10:01;28.20;;;10.60;;
73675;SDS011;61975;48.660;10.164;2022-11-03T14:12:27;28.02;;;10.43;;
73675;SDS011;61975;48.660;10.164;2022-11-03T14:15:05;26.98;;;10.43;;
73675;SDS011;61975;48.660;10.164;2022-11-03T14:17:33;24.23;;;9.95;;
73675;SDS011;61975;48.660;10.164;2022-11-03T14:20:00;25.53;;;9.93;;
73675;SDS011;61975;48.660;10.164;2022-11-03T14:22:26;24.48;;;10.02;;
73675;SDS011;61975;48.660;10.164;2022-11-03T14:24:51;28.17;;;10.10;;
73675;SDS011;61975;48.660;10.164;2022-11-03T14:27:17;25.40;;;9.98;;
73675;SDS011;61975;48.660;10.164;2022-11-03T14:29:43;23.25;;;9.77;;
73675;SDS011;61975;48.660;10.164;2022-11-03T14:32:09;19.83;;;9.15;;
73675;SDS011;61975;48.660;10.164;2022-11-03T14:34:35;21.88;;;9.63;;
73675;SDS011;61975;48.660;10.164;2022-11-03T14:37:02;18.80;;;8.77;;
73675;SDS011;61975;48.660;10.164;2022-11-03T14:39:28;22.80;;;8.90;;
73675;SDS011;61975;48.660;10.164;2022-11-03T14:41:53;19.35;;;8.75;;
73675;SDS011;61975;48.660;10.164;2022-11-03T14:44:28;20.23;;;8.73;;
73675;SDS011;61975;48.660;10.164;2022-11-03T14:46:58;18.73;;;8.35;;
73675;SDS011;61975;48.660;10.164;2022-11-03T14:49:25;18.48;;;8.45;;
73675;SDS011;61975;48.660;10.164;2022-11-03T14:51:51;17.73;;;8.38;;
73675;SDS011;61975;48.660;10.164;2022-11-03T14:54:17;16.97;;;8.13;;
73675;SDS011;61975;48.660;10.164;2022-11-03T14:56:42;18.67;;;8.40;;
73675;SDS011;61975;48.660;10.164;2022-11-03T14:59:08;17.70;;;8.43;;
73675;SDS011;61975;48.660;10.164;2022-11-03T15:01:33;24.70;;;9.77;;
73675;SDS011;61975;48.660;10.164;2022-11-03T15:04:00;15.57;;;8.00;;
73675;SDS011;61975;48.660;10.164;2022-11-03T15:06:25;17.77;;;7.60;;
73675;SDS011;61975;48.660;10.164;2022-11-03T15:08:51;17.07;;;7.77;;
73675;SDS011;61975;48.660;10.164;2022-11-03T15:11:16;17.40;;;8.10;;
73675;SDS011;61975;48.660;10.164;2022-11-03T15:13:41;20.30;;;8.77;;
73675;SDS011;61975;48.660;10.164;2022-11-03T15:16:07;16.65;;;7.72;;
73675;SDS011;61975;48.660;10.164;2022-11-03T15:18:32;20.55;;;8.50;;
73675;SDS011;61975;48.660;10.164;2022-11-03T15:20:58;18.43;;;8.60;;
73675;SDS011;61975;48.660;10.164;2022-11-03T15:23:23;22.27;;;9.40;;
73675;SDS011;61975;48.660;10.164;2022-11-03T15:25:49;20.27;;;9.80;;
73675;SDS011;61975;48.660;10.164;2022-11-03T15:28:14;22.42;;;9.35;;
73675;SDS011;61975;48.660;10.164;2022-11-03T15:30:39;22.10;;;9.70;;
73675;SDS011;61975;48.660;10.164;2022-11-03T15:33:05;25.73;;;9.97;;
73675;SDS011;61975;48.660;10.164;2022-11-03T15:35:30;26.43;;;10.07;;